Flight Track Log - Related Links

Times and Time Zones

All times are in EDT time to prevent confusion due to time zone crossing. See the CSJ405 flight status page for this flight to view local times or setup timezone preferences in your user account.

Time Position Orientation Groundspeed Altitude Reporting Facility
EDT Latitude Longitude Course Direction KTS MPH feet Rate Location/Type
Wed 04:51:50 AM 45.6833 -73.9833 201° Southwest 100 115 1,500  Level Montreal Center
Wed 04:52:50 AM 45.6833 -73.9500 90° East 130 150 2,400 900 Climbing Montreal Center
Wed 04:53:50 AM 45.6500 -73.9333 161° South 110 127 3,300 1,000 Climbing Montreal Center
Wed 04:54:50 AM 45.6167 -73.9333 180° South 120 138 4,400 1,000 Climbing Montreal Center
Wed 04:55:50 AM 45.5833 -73.9333 180° South 120 138 5,300 900 Climbing Montreal Center
Wed 04:56:00 AM 45.4122 -74.0161 180° South  Level Estimated
Wed 04:56:50 AM 45.5500 -73.9333 180° South 120 138 6,200  Level Montreal Center
Wed 04:57:00 AM 45.3705 -74.0388 201° Southwest  Level FlightAware Approximate
Wed 04:57:50 AM 45.5167 -73.9333 180° South 130 150 6,900  Level Montreal Center
Wed 04:58:50 AM 45.4667 -73.9333 180° South 140 161 7,600 800 Climbing Montreal Center
Wed 04:59:50 AM 45.4333 -73.9333 180° South 140 161 8,500 781 Climbing Montreal Center
Wed 05:01:00 AM 45.3813 -73.9307 180° South  Level Estimated
Wed 05:01:39 AM 45.3828 -73.9353 180° South 165 190 9,800  Level Boston Center
Wed 05:02:39 AM 45.3453 -73.9342 179° South 154 177 10,100 150 Climbing Boston Center
Wed 05:03:39 AM 45.3017 -73.9331 179° South 154 177 10,100  Level Boston Center
Wed 05:04:39 AM 45.2578 -73.9350 182° South 154 177 10,100  Level Boston Center
Wed 05:05:39 AM 45.2119 -73.9308 176° South 160 184 10,100  Level Boston Center
Wed 05:06:39 AM 45.1683 -73.9267 176° South 160 184 10,100  Level Boston Center
Wed 05:07:39 AM 45.1247 -73.9228 176° South 160 184 10,100  Level Boston Center
Wed 05:08:39 AM 45.0831 -73.9217 179° South 160 184 10,100  Level Boston Center
Wed 05:09:39 AM 45.0394 -73.9206 179° South 160 184 10,100  Level Boston Center
Wed 05:10:39 AM 44.9914 -73.9133 174° South 160 184 10,100  Level Boston Center
Wed 05:11:39 AM 44.9456 -73.9122 179° South 160 184 10,100  Level Boston Center
Wed 05:12:39 AM 44.9019 -73.9083 176° South 160 184 10,100  Level Boston Center
Wed 05:13:39 AM 44.8583 -73.9042 176° South 160 184 10,100  Level Boston Center
Wed 05:14:39 AM 44.8144 -73.9031 179° South 160 184 10,100  Level Boston Center
Wed 05:15:39 AM 44.7750 -73.9022 179° South 160 184 10,100  Level Boston Center
Wed 05:16:39 AM 44.7356 -73.9011 179° South 155 178 10,100  Level Boston Center
Wed 05:17:39 AM 44.6939 -73.9000 179° South 155 178 10,100  Level Boston Center
Wed 05:18:39 AM 44.6522 -73.8961 176° South 155 178 10,100  Level Boston Center
Wed 05:19:39 AM 44.6106 -73.8922 176° South 155 178 10,100  Level Boston Center
Wed 05:20:39 AM 44.5708 -73.8911 179° South 155 178 10,100  Level Boston Center
Wed 05:21:39 AM 44.5294 -73.8903 179° South 155 178 10,100  Level Boston Center
Wed 05:22:39 AM 44.4836 -73.8892 179° South 155 178 10,100  Level Boston Center
Wed 05:23:39 AM 44.4419 -73.8881 179° South 155 178 10,100  Level Boston Center
Wed 05:24:39 AM 44.4003 -73.8869 179° South 155 178 10,100  Level Boston Center
Wed 05:25:39 AM 44.3586 -73.8831 176° South 155 178 10,100  Level Boston Center
Wed 05:26:39 AM 44.3169 -73.8792 176° South 155 178 10,100  Level Boston Center
Wed 05:27:39 AM 44.2731 -73.8781 179° South 160 184 10,100  Level Boston Center
Wed 05:28:39 AM 44.2314 -73.8772 179° South 160 184 10,100  Level Boston Center
Wed 05:29:39 AM 44.1919 -73.8733 176° South 160 184 10,100  Level Boston Center
Wed 05:30:39 AM 44.1483 -73.8694 176° South 160 184 10,100  Level Boston Center
Wed 05:31:39 AM 44.1128 -73.8686 179° South 160 184 10,100  Level Boston Center
Wed 05:32:39 AM 44.0711 -73.8675 179° South 155 178 10,100  Level Boston Center
Wed 05:33:39 AM 44.0294 -73.8636 176° South 155 178 10,100  Level Boston Center
Wed 05:34:39 AM 43.9900 -73.8656 182° South 155 178 10,100  Level Boston Center
Wed 05:35:39 AM 43.9483 -73.8647 179° South 155 178 10,100  Level Boston Center
Wed 05:36:39 AM 43.9025 -73.8606 176° South 155 178 10,100  Level Boston Center
Wed 05:37:39 AM 43.8586 -73.8597 179° South 161 185 10,100  Level Boston Center
Wed 05:38:39 AM 43.8192 -73.8586 179° South 156 180 10,100  Level Boston Center
Wed 05:39:39 AM 43.7817 -73.8578 179° South 156 180 10,100  Level Boston Center
Wed 05:40:39 AM 43.7358 -73.8539 176° South 156 180 10,100  Level Boston Center
Wed 05:41:39 AM 43.6942 -73.8528 179° South 156 180 10,100  Level Boston Center
Wed 05:42:39 AM 43.6464 -73.8461 174° South 161 185 10,100  Level Boston Center
Wed 05:43:39 AM 43.6047 -73.8478 182° South 161 185 10,100  Level Boston Center
Wed 05:44:39 AM 43.5631 -73.8469 179° South 161 185 10,100  Level Boston Center
Wed 05:45:15 AM 43.5381 -73.8492 184° South 156 180 10,100  Level Boston Center
Wed 05:45:39 AM 43.5172 -73.8431 168° South 161 185 10,100  Level Boston Center
Wed 05:46:03 AM 43.5006 -73.8483 193° South 155 178 10,100  Level Boston Center
Wed 05:46:39 AM 43.4756 -73.8419 169° South 161 185 10,100  Level Boston Center
Wed 05:47:04 AM 43.4589 -73.8444 186° South 151 174 10,100  Level Boston Center
Wed 05:47:39 AM 43.4339 -73.8353 165° South 161 185 10,100  Level Boston Center
Wed 05:47:59 AM 43.4233 -73.8408 201° Southwest 148 170 10,100  Level Boston Center
Wed 05:48:39 AM 43.3922 -73.8372 175° South 155 178 10,100  Level Boston Center
Wed 05:48:59 AM 43.3775 -73.8369 179° South 150 173 10,100  Level Boston Center
Wed 05:49:39 AM 43.3525 -73.8364 179° South 160 184 10,100 -393 Level Boston Center
Wed 05:50:00 AM 43.3358 -73.8358 179° South 156 180 9,700 -900 Descending Boston Center
Wed 05:50:39 AM 43.3028 -73.8322 175° South 160 184 9,200 -800 Descending Boston Center
Wed 05:51:00 AM 43.2881 -73.8347 187° South 171 197 8,900 -500 Descending Boston Center
Wed 05:51:39 AM 43.2631 -73.8342 179° South 160 184 8,700 -492 Descending Boston Center
Wed 05:52:01 AM 43.2422 -73.8339 179° South 168 193 8,400 -600 Descending Boston Center
Wed 05:52:39 AM 43.2108 -73.8303 175° South 160 184 8,100 -492 Descending Boston Center
Wed 05:53:02 AM 43.1942 -73.8328 186° South 165 190 7,900 -500 Descending Boston Center
Wed 05:53:39 AM 43.1692 -73.8294 174° South 160 184 7,600 -600 Descending Boston Center
Wed 05:54:02 AM 43.1506 -73.8317 185° South 166 191 7,300 -600 Descending Boston Center
Wed 05:54:39 AM 43.1172 -73.8253 172° South 160 184 7,000 -590 Descending Boston Center
Wed 05:55:03 AM 43.1025 -73.8278 187° South 166 191 6,700 -600 Descending Boston Center
Wed 05:55:39 AM 43.0778 -73.8244 174° South 165 190 6,400 -500 Descending Boston Center
Wed 05:56:03 AM 43.0569 -73.8239 179° South 165 190 6,200 -500 Descending Boston Center
Wed 05:56:39 AM 43.0319 -73.8206 174° South 165 190 5,900 -492 Descending Boston Center
Wed 05:57:04 AM 43.0111 -73.8228 184° South 163 188 5,700 -600 Descending Boston Center
Wed 05:57:39 AM 42.9839 -73.8194 175° South 165 190 5,300 -689 Descending Boston Center
Wed 05:58:05 AM 42.9611 -73.8217 184° South 161 185 5,000 -600 Descending Boston Center
Wed 05:58:39 AM 42.9422 -73.8186 173° South 165 190 4,700 -600 Descending Boston Center
Wed 05:59:05 AM 42.9153 -73.8178 179° South 163 188 4,400 -900 Descending Boston Center
Wed 05:59:39 AM 42.8903 -73.8144 174° South 160 184 3,800 -1,279 Descending Boston Center
Wed 06:00:06 AM 42.8714 -73.8142 179° South 163 188 3,100 -1,364 Descending Boston Center
Wed 06:01:07 AM 42.8278 -73.8103 176° South 154 177 1,800 -1,091 Descending Boston Center
Wed 06:02:07 AM 42.7839 -73.8064 176° South 153 176 900 -900 Descending Boston Center
Wed 06:04:00 AM 42.7491 -73.8020 North  Level Estimated
Wed 06:11:00 AM 42.7491 -73.8020 North  Level Estimated
Wed 06:12:00 AM 42.7491 -73.8020 North  Level Estimated
Wed 06:13:00 AM 42.7491 -73.8020 North  Level Estimated

Login

Don't have an account? Register now (free) for customized features, flight alerts, and more!